createdAt,value
2018-05-01T00:00:13.226Z,12.10
2018-05-01T00:02:42.197Z,12.00
2018-05-01T00:05:11.267Z,11.90
2018-05-01T00:07:39.483Z,11.80
2018-05-01T00:10:08.051Z,11.80
2018-05-01T00:12:36.260Z,11.80
2018-05-01T00:15:04.513Z,11.70
2018-05-01T00:17:32.744Z,11.60
2018-05-01T00:20:00.950Z,11.60
2018-05-01T00:22:29.950Z,11.60
2018-05-01T00:24:58.234Z,11.50
2018-05-01T00:27:26.483Z,11.40
2018-05-01T00:29:54.784Z,11.40
2018-05-01T00:32:23.004Z,11.40
2018-05-01T00:34:51.208Z,11.30
2018-05-01T00:37:20.224Z,11.20
2018-05-01T00:39:49.216Z,11.30
2018-05-01T00:42:17.439Z,11.20
2018-05-01T00:44:45.663Z,11.30
2018-05-01T00:47:14.675Z,11.20
2018-05-01T00:49:42.940Z,11.20
2018-05-01T00:55:16.655Z,11.30
2018-05-01T00:57:45.655Z,11.40
2018-05-01T01:00:13.976Z,11.40
2018-05-01T01:02:42.313Z,11.20
2018-05-01T01:05:10.508Z,11.00
2018-05-01T01:07:38.746Z,10.70
2018-05-01T01:10:08.011Z,10.70
2018-05-01T01:12:36.257Z,10.70
2018-05-01T01:15:04.499Z,10.80
2018-05-01T01:17:33.500Z,10.50
2018-05-01T01:20:01.934Z,10.50
2018-05-01T01:22:30.144Z,10.30
2018-05-01T01:24:59.147Z,10.30
2018-05-01T01:27:27.421Z,10.30
2018-05-01T01:29:55.701Z,10.40
2018-05-01T01:32:23.900Z,10.30
2018-05-01T01:34:52.124Z,10.30
2018-05-01T01:37:19.846Z,10.30
2018-05-01T01:39:47.597Z,10.40
2018-05-01T01:42:15.319Z,10.30
2018-05-01T01:44:43.820Z,10.10
2018-05-01T01:47:11.585Z,10.10
2018-05-01T01:49:39.345Z,10.20
2018-05-01T01:52:07.827Z,10.20
2018-05-01T01:54:36.700Z,10.00
2018-05-01T01:57:05.183Z,10.20
2018-05-01T01:59:33.679Z,10.50
2018-05-01T02:02:01.395Z,10.50
2018-05-01T02:04:29.125Z,10.20
2018-05-01T02:06:56.838Z,10.10
2018-05-01T02:09:24.561Z,10.30
2018-05-01T02:11:53.045Z,10.10
2018-05-01T02:14:20.772Z,10.10
2018-05-01T02:16:48.535Z,10.00
2018-05-01T02:19:16.300Z,9.90
2018-05-01T02:21:44.770Z,9.90
2018-05-01T02:24:13.256Z,9.70
2018-05-01T02:26:41.736Z,9.70
2018-05-01T02:29:10.300Z,9.70
2018-05-01T02:31:38.011Z,9.70
2018-05-01T02:34:05.726Z,9.80
2018-05-01T02:36:33.512Z,9.60
2018-05-01T02:39:02.153Z,9.80
2018-05-01T02:41:29.860Z,9.70
2018-05-01T02:43:58.441Z,9.80
2018-05-01T02:46:27.023Z,9.80
2018-05-01T02:48:55.609Z,9.70
2018-05-01T02:51:23.313Z,9.70
2018-05-01T02:53:51.045Z,9.70
2018-05-01T02:56:18.774Z,9.50
2018-05-01T02:58:46.481Z,9.50
2018-05-01T03:01:14.221Z,9.60
2018-05-01T03:03:42.698Z,9.70
2018-05-01T03:06:11.193Z,9.40
2018-05-01T03:08:38.920Z,9.40
2018-05-01T03:11:06.721Z,9.30
2018-05-01T03:13:34.468Z,9.30
2018-05-01T03:16:03.010Z,9.30
2018-05-01T03:18:30.736Z,9.30
2018-05-01T03:20:58.464Z,9.30
2018-05-01T03:23:26.952Z,9.30
2018-05-01T03:25:55.456Z,9.30
2018-05-01T03:28:23.184Z,9.30
2018-05-01T03:30:50.896Z,9.20
2018-05-01T03:33:18.610Z,9.40
2018-05-01T03:35:46.413Z,9.40
2018-05-01T03:38:14.144Z,9.50
2018-05-01T03:40:42.765Z,9.20
2018-05-01T03:43:10.775Z,9.20
2018-05-01T03:45:38.589Z,9.20
2018-05-01T03:48:06.305Z,9.00
2018-05-01T03:50:34.029Z,9.30
2018-05-01T03:53:01.787Z,9.20
2018-05-01T03:55:29.507Z,9.20
2018-05-01T03:57:57.260Z,9.10
2018-05-01T04:00:25.056Z,9.00
2018-05-01T04:02:53.551Z,9.30
2018-05-01T04:05:22.042Z,9.20
2018-05-01T04:07:49.780Z,9.20
2018-05-01T04:10:18.273Z,8.90
2018-05-01T04:12:45.982Z,8.90
2018-05-01T04:15:14.101Z,9.00
2018-05-01T04:17:42.575Z,8.90
2018-05-01T04:20:11.225Z,9.00
2018-05-01T04:22:38.968Z,9.00
2018-05-01T04:25:06.674Z,9.10
2018-05-01T04:27:35.176Z,9.00
2018-05-01T04:30:03.201Z,9.00
2018-05-01T04:32:31.010Z,9.10
2018-05-01T04:34:58.781Z,9.10
2018-05-01T04:37:26.516Z,9.00
2018-05-01T04:39:54.292Z,9.00
2018-05-01T04:42:22.882Z,9.10
2018-05-01T04:44:51.361Z,9.00
2018-05-01T04:47:19.852Z,9.10
2018-05-01T04:49:47.610Z,9.10
2018-05-01T04:52:15.365Z,9.10
2018-05-01T04:54:43.844Z,8.90
2018-05-01T04:57:11.629Z,8.90
2018-05-01T04:59:39.351Z,9.20
2018-05-01T05:02:07.147Z,9.30
2018-05-01T05:04:34.908Z,9.00
2018-05-01T05:07:02.634Z,9.00
2018-05-01T05:09:30.372Z,8.90
2018-05-01T05:11:58.077Z,8.90
2018-05-01T05:14:26.582Z,8.90
2018-05-01T05:16:55.085Z,9.10
2018-05-01T05:19:22.818Z,9.10
2018-05-01T05:21:51.424Z,8.90
2018-05-01T05:24:19.136Z,8.90
2018-05-01T05:26:46.861Z,8.90
2018-05-01T05:29:14.578Z,8.90
2018-05-01T05:31:43.171Z,9.10
2018-05-01T05:34:11.653Z,9.20
2018-05-01T05:36:40.142Z,9.20
2018-05-01T05:39:07.859Z,9.20
2018-05-01T05:41:35.590Z,9.00
2018-05-01T05:44:03.296Z,9.20
2018-05-01T05:46:31.039Z,9.50
2018-05-01T05:48:58.857Z,9.60
2018-05-01T05:51:27.326Z,9.30
2018-05-01T05:53:55.823Z,9.20
2018-05-01T05:56:23.544Z,9.20
2018-05-01T05:58:51.333Z,9.30
2018-05-01T06:01:19.838Z,9.30
2018-05-01T06:03:47.589Z,9.30
2018-05-01T06:06:15.353Z,9.20
2018-05-01T06:08:43.843Z,9.30
2018-05-01T06:11:11.558Z,9.30
2018-05-01T06:13:39.346Z,9.40
2018-05-01T06:16:07.036Z,9.50
2018-05-01T06:18:34.788Z,9.50
2018-05-01T06:21:02.605Z,9.40
2018-05-01T06:23:30.328Z,9.40
2018-05-01T06:25:58.050Z,9.20
2018-05-01T06:28:25.841Z,9.40
2018-05-01T06:30:54.320Z,9.30
2018-05-01T06:33:22.808Z,9.50
2018-05-01T06:35:50.513Z,9.50
2018-05-01T06:38:18.324Z,9.40
2018-05-01T06:40:46.808Z,9.30
2018-05-01T06:43:15.301Z,9.50
2018-05-01T06:45:43.065Z,9.50
2018-05-01T06:48:10.790Z,9.90
2018-05-01T06:50:38.525Z,9.90
2018-05-01T06:53:06.272Z,9.80
2018-05-01T06:55:34.165Z,9.70
2018-05-01T06:58:01.975Z,9.80
2018-05-01T07:00:30.454Z,9.50
2018-05-01T07:02:58.960Z,9.60
2018-05-01T07:05:26.697Z,9.60
2018-05-01T07:07:55.205Z,9.70
2018-05-01T07:10:23.060Z,9.70
2018-05-01T07:12:50.678Z,9.80
2018-05-01T07:15:18.404Z,9.60
2018-05-01T07:17:46.129Z,9.50
2018-05-01T07:20:14.610Z,9.50
2018-05-01T07:22:43.090Z,9.60
2018-05-01T07:25:11.580Z,9.80
2018-05-01T07:27:39.298Z,9.70
2018-05-01T07:30:08.289Z,9.70
2018-05-01T07:32:35.997Z,9.60
2018-05-01T07:35:04.492Z,9.70
2018-05-01T07:37:32.205Z,9.70
2018-05-01T07:40:00.004Z,9.50
2018-05-01T07:42:28.469Z,9.80
2018-05-01T07:44:57.095Z,9.70
2018-05-01T07:47:24.792Z,9.60
2018-05-01T07:49:52.529Z,9.60
2018-05-01T07:52:20.827Z,9.50
2018-05-01T07:54:48.529Z,9.50
2018-05-01T07:57:17.009Z,9.60
2018-05-01T07:59:45.501Z,9.70
2018-05-01T08:02:13.212Z,9.60
2018-05-01T08:04:40.937Z,9.90
2018-05-01T08:07:08.680Z,10.00
2018-05-01T08:09:36.431Z,10.00
2018-05-01T08:12:04.158Z,10.00
2018-05-01T08:14:31.893Z,9.90
2018-05-01T08:17:00.260Z,10.00
2018-05-01T08:19:27.980Z,10.10
2018-05-01T08:21:56.465Z,10.20
2018-05-01T08:24:25.725Z,10.00
2018-05-01T08:26:53.452Z,10.00
2018-05-01T08:29:21.187Z,10.00
2018-05-01T08:31:48.898Z,10.00
2018-05-01T08:34:16.641Z,10.10
2018-05-01T08:36:45.116Z,10.30
2018-05-01T08:39:13.620Z,10.30
2018-05-01T08:41:41.377Z,10.30
2018-05-01T08:44:09.149Z,10.30
2018-05-01T08:46:36.884Z,10.30
2018-05-01T08:49:05.380Z,10.40
2018-05-01T08:51:33.877Z,10.30
2018-05-01T08:54:01.611Z,10.30
2018-05-01T08:56:30.121Z,10.40
2018-05-01T08:58:57.839Z,10.30
2018-05-01T09:01:25.640Z,10.30
2018-05-01T09:03:53.368Z,10.40
2018-05-01T09:06:21.088Z,10.50
2018-05-01T09:08:48.814Z,10.40
2018-05-01T09:11:17.409Z,10.50
2018-05-01T09:13:45.173Z,10.50
2018-05-01T09:16:13.492Z,10.50
2018-05-01T09:18:41.332Z,10.50
2018-05-01T09:21:09.184Z,10.60
2018-05-01T09:23:36.903Z,10.60
2018-05-01T09:26:04.635Z,10.70
2018-05-01T09:28:32.344Z,11.00
2018-05-01T09:31:00.848Z,11.30
2018-05-01T09:33:28.561Z,11.30
2018-05-01T09:35:57.812Z,11.30
2018-05-01T09:38:25.565Z,11.30
2018-05-01T09:40:54.056Z,11.40
2018-05-01T09:43:21.802Z,11.40
2018-05-01T09:45:50.297Z,11.00
2018-05-01T09:48:18.060Z,11.00
2018-05-01T09:50:45.821Z,11.30
2018-05-01T09:53:14.889Z,11.50
2018-05-01T09:55:43.225Z,11.60
2018-05-01T09:58:11.476Z,11.60
2018-05-01T10:00:39.700Z,11.50
2018-05-01T10:03:08.173Z,12.00
2018-05-01T10:05:36.413Z,12.10
2018-05-01T10:08:04.663Z,12.30
2018-05-01T10:10:33.646Z,12.40
2018-05-01T10:13:02.680Z,12.50
2018-05-01T10:15:30.878Z,12.40
2018-05-01T10:17:59.092Z,13.10
2018-05-01T10:20:28.101Z,12.60
2018-05-01T10:22:57.254Z,12.20
2018-05-01T10:25:25.455Z,12.20
2018-05-01T10:27:54.433Z,12.00
2018-05-01T10:30:22.656Z,12.00
2018-05-01T10:32:50.876Z,12.00
2018-05-01T10:35:19.193Z,12.30
2018-05-01T10:37:47.469Z,11.80
2018-05-01T10:40:15.684Z,12.00
2018-05-01T10:42:43.914Z,11.90
2018-05-01T10:45:12.118Z,12.20
2018-05-01T10:47:40.368Z,12.20
2018-05-01T10:50:08.849Z,12.00
2018-05-01T10:52:37.836Z,12.30
2018-05-01T10:55:06.140Z,12.30
2018-05-01T10:57:34.360Z,12.40
2018-05-01T11:00:02.938Z,12.60
2018-05-01T11:02:31.260Z,12.50
2018-05-01T11:04:59.464Z,12.70
2018-05-01T11:07:27.698Z,13.30
2018-05-01T11:09:55.972Z,13.30
2018-05-01T11:12:24.194Z,13.00
2018-05-01T11:14:52.498Z,12.90
2018-05-01T11:17:20.747Z,13.10
2018-05-01T11:19:49.685Z,13.20
2018-05-01T11:22:18.705Z,13.70
2018-05-01T11:24:46.905Z,13.70
2018-05-01T11:27:15.136Z,15.30
2018-05-01T11:29:43.347Z,15.40
2018-05-01T11:32:11.601Z,15.20
2018-05-01T11:34:39.809Z,15.30
2018-05-01T11:37:08.043Z,15.30
2018-05-01T11:39:36.258Z,15.10
2018-05-01T11:42:04.472Z,15.30
2018-05-01T11:44:33.446Z,15.10
2018-05-01T11:47:01.657Z,15.10
2018-05-01T11:49:29.915Z,14.90
2018-05-01T11:51:58.885Z,15.30
2018-05-01T11:54:27.189Z,15.30
2018-05-01T11:56:56.194Z,15.30
2018-05-01T11:59:24.425Z,15.30
2018-05-01T12:01:52.679Z,15.20
2018-05-01T12:04:20.982Z,14.80
2018-05-01T12:06:49.223Z,15.20
2018-05-01T12:09:17.444Z,15.70
2018-05-01T12:11:46.465Z,15.90
2018-05-01T12:14:14.723Z,15.80
2018-05-01T12:16:42.977Z,15.40
2018-05-01T12:19:11.339Z,15.40
2018-05-01T12:21:39.553Z,15.30
2018-05-01T12:24:07.832Z,15.50
2018-05-01T12:26:36.048Z,15.00
2018-05-01T12:29:04.445Z,15.00
2018-05-01T12:31:33.422Z,15.10
2018-05-01T12:34:01.665Z,15.10
2018-05-01T12:36:29.919Z,15.10
2018-05-01T12:38:58.160Z,15.20
2018-05-01T12:41:26.486Z,15.50
2018-05-01T12:43:54.762Z,15.50
2018-05-01T12:46:23.036Z,15.90
2018-05-01T12:48:51.305Z,15.90
2018-05-01T12:51:20.303Z,15.50
2018-05-01T12:53:48.520Z,15.40
2018-05-01T12:56:16.732Z,15.40
2018-05-01T12:58:45.745Z,15.50
2018-05-01T13:01:14.013Z,15.50
2018-05-01T13:03:42.999Z,15.60
2018-05-01T13:06:11.960Z,15.70
2018-05-01T13:08:40.173Z,15.70
2018-05-01T13:11:09.295Z,15.80
2018-05-01T13:13:37.488Z,15.70
2018-05-01T13:16:05.725Z,15.60
2018-05-01T13:18:33.982Z,15.40
2018-05-01T13:21:02.169Z,15.30
2018-05-01T13:23:31.139Z,15.40
2018-05-01T13:26:00.136Z,15.30
2018-05-01T13:28:29.113Z,15.50
2018-05-01T13:30:58.096Z,15.40
2018-05-01T13:33:26.364Z,15.40
2018-05-01T13:35:54.693Z,15.70
2018-05-01T13:38:23.660Z,15.90
2018-05-01T13:40:51.889Z,15.90
2018-05-01T13:43:20.162Z,15.60
2018-05-01T13:45:48.408Z,15.60
2018-05-01T13:48:16.638Z,16.00
2018-05-01T13:50:44.860Z,16.20
2018-05-01T13:53:13.069Z,16.40
2018-05-01T13:55:41.318Z,16.50
2018-05-01T13:58:09.518Z,16.60
2018-05-01T14:00:37.772Z,16.10
2018-05-01T14:03:07.015Z,16.50
2018-05-01T14:05:35.265Z,16.50
2018-05-01T14:08:03.470Z,16.50
2018-05-01T14:10:31.694Z,16.80
2018-05-01T14:12:59.956Z,16.80
2018-05-01T14:15:29.056Z,17.20
2018-05-01T14:17:57.337Z,17.20
2018-05-01T14:20:25.590Z,17.10
2018-05-01T14:22:54.553Z,16.90
2018-05-01T14:25:22.939Z,16.90
2018-05-01T14:27:51.219Z,17.40
2018-05-01T14:30:19.550Z,16.60
2018-05-01T14:32:47.760Z,16.90
2018-05-01T14:35:15.997Z,16.80
2018-05-01T14:37:44.233Z,16.80
2018-05-01T14:40:12.678Z,16.70
2018-05-01T14:42:40.894Z,16.50
2018-05-01T14:45:09.889Z,16.60
2018-05-01T14:47:38.856Z,20.20
2018-05-01T14:50:07.429Z,20.10
2018-05-01T14:52:35.641Z,20.80
2018-05-01T14:55:04.649Z,22.80
2018-05-01T14:57:32.925Z,22.70
2018-05-01T15:00:01.198Z,22.50
2018-05-01T15:02:29.407Z,28.50
2018-05-01T15:04:57.608Z,27.70
2018-05-01T15:07:25.924Z,31.20
2018-05-01T15:09:54.121Z,29.10
2018-05-01T15:12:22.361Z,28.60
2018-05-01T15:14:51.344Z,25.90
2018-05-01T15:17:20.331Z,23.40
2018-05-01T15:19:49.308Z,27.90
2018-05-01T15:22:17.628Z,27.80
2018-05-01T15:24:45.842Z,26.80
2018-05-01T15:27:14.072Z,29.00
2018-05-01T15:29:42.289Z,32.10
2018-05-01T15:32:10.508Z,30.80
2018-05-01T15:34:39.480Z,20.80
2018-05-01T15:37:07.701Z,20.60
2018-05-01T15:39:35.900Z,18.80
2018-05-01T15:42:04.116Z,18.70
2018-05-01T15:44:33.089Z,17.90
2018-05-01T15:47:01.329Z,17.80
2018-05-01T15:49:29.587Z,18.20
2018-05-01T15:51:58.543Z,17.60
2018-05-01T15:54:26.749Z,17.50
2018-05-01T15:56:54.970Z,17.00
2018-05-01T15:59:23.175Z,17.40
2018-05-01T16:01:52.238Z,17.20
2018-05-01T16:04:20.440Z,17.20
2018-05-01T16:06:49.548Z,17.00
2018-05-01T16:09:17.729Z,17.00
2018-05-01T16:11:45.954Z,17.40
2018-05-01T16:14:14.242Z,17.60
2018-05-01T16:16:42.458Z,17.60
2018-05-01T16:19:10.659Z,17.60
2018-05-01T16:21:38.883Z,17.60
2018-05-01T16:24:07.081Z,17.20
2018-05-01T16:26:35.352Z,16.70
2018-05-01T16:31:38.141Z,16.60
2018-05-01T16:34:07.164Z,16.90
2018-05-01T16:36:35.366Z,16.90
2018-05-01T16:39:03.609Z,16.70
2018-05-01T16:41:31.850Z,16.60
2018-05-01T16:44:00.838Z,16.50
2018-05-01T16:46:29.825Z,16.50
2018-05-01T16:48:58.066Z,16.50
2018-05-01T16:51:26.279Z,16.60
2018-05-01T16:53:55.321Z,15.90
2018-05-01T16:56:23.571Z,15.90
2018-05-01T16:58:51.801Z,16.00
2018-05-01T17:01:20.053Z,15.90
2018-05-01T17:03:48.297Z,15.90
2018-05-01T17:06:16.512Z,15.80
2018-05-01T17:08:44.748Z,16.00
2018-05-01T17:11:12.970Z,16.10
2018-05-01T17:13:41.196Z,15.90
2018-05-01T17:16:09.438Z,15.90
2018-05-01T17:18:37.644Z,15.90
2018-05-01T17:21:05.862Z,15.50
2018-05-01T17:23:34.101Z,15.90
2018-05-01T17:26:02.321Z,16.10
2018-05-01T17:28:30.553Z,16.20
2018-05-01T17:30:58.781Z,16.20
2018-05-01T17:33:27.799Z,16.10
2018-05-01T17:35:56.101Z,16.10
2018-05-01T17:38:24.330Z,16.00
2018-05-01T17:40:52.687Z,16.10
2018-05-01T17:43:20.860Z,16.20
2018-05-01T17:45:49.105Z,16.10
2018-05-01T17:48:17.342Z,16.20
2018-05-01T17:50:45.549Z,16.10
2018-05-01T17:53:13.772Z,16.00
2018-05-01T17:55:41.988Z,15.90
2018-05-01T17:58:10.285Z,15.90
2018-05-01T18:00:38.520Z,15.90
2018-05-01T18:03:08.130Z,15.70
2018-05-01T18:05:37.157Z,15.60
2018-05-01T18:08:05.397Z,15.60
2018-05-01T18:10:34.370Z,15.50
2018-05-01T18:13:02.679Z,15.50
2018-05-01T18:15:31.661Z,15.70
2018-05-01T18:18:00.652Z,15.60
2018-05-01T18:20:28.944Z,15.60
2018-05-01T18:22:57.240Z,15.60
2018-05-01T18:25:25.504Z,15.50
2018-05-01T18:27:53.784Z,15.50
2018-05-01T18:30:22.024Z,15.50
2018-05-01T18:32:50.234Z,15.50
2018-05-01T18:35:18.869Z,15.40
2018-05-01T18:37:47.123Z,15.40
2018-05-01T18:40:15.317Z,15.30
2018-05-01T18:42:43.528Z,15.20
2018-05-01T18:45:12.509Z,15.30
2018-05-01T18:47:41.487Z,15.20
2018-05-01T18:50:10.060Z,15.20
2018-05-01T18:52:38.382Z,15.10
2018-05-01T18:55:06.599Z,15.20
2018-05-01T18:57:34.798Z,15.20
2018-05-01T19:00:03.263Z,15.30
2018-05-01T19:02:31.472Z,15.20
2018-05-01T19:04:59.761Z,15.20
2018-05-01T19:07:28.764Z,15.20
2018-05-01T19:09:57.027Z,15.20
2018-05-01T19:12:25.990Z,15.00
2018-05-01T19:14:54.212Z,14.90
2018-05-01T19:17:22.451Z,14.80
2018-05-01T19:19:51.537Z,14.80
2018-05-01T19:22:19.793Z,14.80
2018-05-01T19:24:48.034Z,14.90
2018-05-01T19:27:16.251Z,14.90
2018-05-01T19:29:44.482Z,14.90
2018-05-01T19:32:12.686Z,14.90
2018-05-01T19:34:40.991Z,14.90
2018-05-01T19:37:09.242Z,14.80
2018-05-01T19:39:37.620Z,14.80
2018-05-01T19:42:05.906Z,14.90
2018-05-01T19:44:34.289Z,14.90
2018-05-01T19:47:03.482Z,14.90
2018-05-01T19:49:32.007Z,14.80
2018-05-01T19:52:00.993Z,14.90
2018-05-01T19:54:30.004Z,14.80
2018-05-01T19:56:58.353Z,14.80
2018-05-01T19:59:27.349Z,14.70
2018-05-01T20:01:56.423Z,14.70
2018-05-01T20:04:24.735Z,14.70
2018-05-01T20:06:52.953Z,14.60
2018-05-01T20:09:21.192Z,14.60
2018-05-01T20:11:49.464Z,14.70
2018-05-01T20:14:17.755Z,14.60
2018-05-01T20:16:45.926Z,14.60
2018-05-01T20:19:14.122Z,14.60
2018-05-01T20:21:42.348Z,14.50
2018-05-01T20:24:10.561Z,14.50
2018-05-01T20:26:38.836Z,14.50
2018-05-01T20:29:07.048Z,14.40
2018-05-01T20:31:35.517Z,14.40
2018-05-01T20:34:03.737Z,14.50
2018-05-01T20:36:31.969Z,14.40
2018-05-01T20:39:00.181Z,14.50
2018-05-01T20:41:28.428Z,14.40
2018-05-01T20:43:56.648Z,14.40
2018-05-01T20:46:24.932Z,14.40
2018-05-01T20:48:53.171Z,14.30
2018-05-01T20:51:22.172Z,14.10
2018-05-01T20:53:50.677Z,14.10
2018-05-01T20:56:19.027Z,14.10
2018-05-01T20:58:48.270Z,14.20
2018-05-01T21:01:16.505Z,14.20
2018-05-01T21:03:44.679Z,14.10
2018-05-01T21:06:12.893Z,14.00
2018-05-01T21:08:41.117Z,14.00
2018-05-01T21:11:10.116Z,14.00
2018-05-01T21:13:39.252Z,14.00
2018-05-01T21:16:09.016Z,13.90
2018-05-01T21:18:40.370Z,14.00
2018-05-01T21:21:08.644Z,13.90
2018-05-01T21:23:40.347Z,13.90
2018-05-01T21:26:10.553Z,13.90
2018-05-01T21:28:39.915Z,13.90
2018-05-01T21:31:09.318Z,13.70
2018-05-01T21:33:38.242Z,13.70
2018-05-01T21:36:06.501Z,13.70
2018-05-01T21:38:36.894Z,13.60
2018-05-01T21:41:05.136Z,13.50
2018-05-01T21:43:33.886Z,13.30
2018-05-01T21:46:04.571Z,13.30
2018-05-01T21:48:36.832Z,13.30
2018-05-01T21:51:08.408Z,13.30
2018-05-01T21:53:42.306Z,13.30
2018-05-01T21:56:10.504Z,13.30
2018-05-01T21:58:39.631Z,13.50
2018-05-01T22:01:08.254Z,13.50
2018-05-01T22:03:36.532Z,13.50
2018-05-01T22:06:04.740Z,13.50
2018-05-01T22:08:33.717Z,13.40
2018-05-01T22:11:01.936Z,13.40
2018-05-01T22:13:30.168Z,13.30
2018-05-01T22:15:58.576Z,13.40
2018-05-01T22:18:26.840Z,13.10
2018-05-01T22:20:55.057Z,13.20
2018-05-01T22:23:23.352Z,13.20
2018-05-01T22:25:51.566Z,13.20
2018-05-01T22:28:19.796Z,13.30
2018-05-01T22:30:48.009Z,13.10
2018-05-01T22:33:17.010Z,13.00
2018-05-01T22:35:45.995Z,12.90
2018-05-01T22:38:15.092Z,13.10
2018-05-01T22:40:43.341Z,13.10
2018-05-01T22:43:11.815Z,13.10
2018-05-01T22:45:40.031Z,13.00
2018-05-01T22:48:09.021Z,13.10
2018-05-01T22:50:37.220Z,13.00
2018-05-01T22:53:05.445Z,13.20
2018-05-01T22:55:34.422Z,13.00
2018-05-01T22:58:02.652Z,13.00
2018-05-01T23:00:30.936Z,13.00
2018-05-01T23:02:59.190Z,13.00
2018-05-01T23:05:28.145Z,13.00
2018-05-01T23:07:56.440Z,13.00
2018-05-01T23:10:25.476Z,13.00
2018-05-01T23:12:53.717Z,13.00
2018-05-01T23:15:22.685Z,13.00
2018-05-01T23:17:50.909Z,13.10
2018-05-01T23:20:19.124Z,13.00
2018-05-01T23:22:47.440Z,13.00
2018-05-01T23:25:15.666Z,13.00
2018-05-01T23:27:43.902Z,13.00
2018-05-01T23:30:12.383Z,12.80
2018-05-01T23:32:40.600Z,12.90
2018-05-01T23:35:08.828Z,12.70
2018-05-01T23:37:37.036Z,12.60
2018-05-01T23:40:05.519Z,12.70
2018-05-01T23:42:33.804Z,12.70
2018-05-01T23:45:02.730Z,12.70
2018-05-01T23:47:31.733Z,12.60
2018-05-01T23:49:59.966Z,12.60
2018-05-01T23:52:28.186Z,12.60
2018-05-01T23:54:56.413Z,12.60
2018-05-01T23:57:24.620Z,12.60
2018-05-01T23:59:53.626Z,12.60
